createdAt,value
2022-09-14T00:00:33.361Z,82.19
2022-09-14T00:05:34.607Z,82.08
2022-09-14T00:10:35.960Z,82.13
2022-09-14T00:15:37.377Z,82.88
2022-09-14T00:20:38.647Z,83.45
2022-09-14T00:25:39.866Z,82.82
2022-09-14T00:30:41.106Z,84.27
2022-09-14T00:35:42.384Z,83.42
2022-09-14T00:40:43.656Z,83.36
2022-09-14T00:45:44.958Z,83.64
2022-09-14T00:50:46.664Z,83.79
2022-09-14T00:55:47.929Z,83.56
2022-09-14T01:00:49.256Z,83.12
2022-09-14T01:05:50.535Z,82.74
2022-09-14T01:10:52.031Z,82.61
2022-09-14T01:15:53.262Z,83.25
2022-09-14T01:20:54.539Z,83.23
2022-09-14T01:25:55.776Z,82.94
2022-09-14T01:30:57.009Z,83.26
2022-09-14T01:35:58.540Z,83.76
2022-09-14T01:40:59.851Z,83.98
2022-09-14T01:46:01.273Z,84.12
2022-09-14T01:51:02.528Z,83.33
2022-09-14T01:56:03.748Z,83.25
2022-09-14T02:01:05.043Z,82.96
2022-09-14T02:06:06.573Z,84.11
2022-09-14T02:11:08.021Z,83.82
2022-09-14T02:16:09.318Z,83.84
2022-09-14T02:21:10.637Z,83.78
2022-09-14T02:26:11.885Z,84.41
2022-09-14T02:31:13.213Z,83.76
2022-09-14T02:36:14.507Z,83.69
2022-09-14T02:41:15.781Z,84.15
2022-09-14T02:46:17.061Z,84.48
2022-09-14T02:51:18.625Z,84.68
2022-09-14T02:56:19.929Z,84.22
2022-09-14T03:01:21.281Z,84.06
2022-09-14T03:06:22.712Z,83.34
2022-09-14T03:11:23.950Z,83.55
2022-09-14T03:16:25.264Z,83.22
2022-09-14T03:21:26.526Z,84.32
2022-09-14T03:26:29.154Z,84.61
2022-09-14T03:31:30.556Z,85.81
2022-09-14T03:36:31.851Z,86.62
2022-09-14T03:41:33.128Z,85.99
2022-09-14T03:46:34.417Z,86.43
2022-09-14T03:51:35.671Z,85.38
2022-09-14T03:56:37.004Z,85.53
2022-09-14T04:01:38.527Z,86.52
2022-09-14T04:06:39.850Z,86.92
2022-09-14T04:11:41.128Z,86.71
2022-09-14T04:16:44.660Z,86.26
2022-09-14T04:21:45.917Z,88.18
2022-09-14T04:26:47.255Z,89.74
2022-09-14T04:31:48.759Z,89.45
2022-09-14T04:36:50.116Z,87.21
2022-09-14T04:41:51.412Z,87.24
2022-09-14T04:46:52.829Z,88.79
2022-09-14T04:51:54.111Z,91.44
2022-09-14T04:56:55.480Z,90.98
2022-09-14T05:01:56.758Z,89.49
2022-09-14T05:06:58.074Z,87.87
2022-09-14T05:11:59.319Z,87.25
2022-09-14T05:17:02.839Z,88.23
2022-09-14T05:22:04.096Z,90.83
2022-09-14T05:27:05.372Z,89.47
2022-09-14T05:32:07.991Z,89.18
2022-09-14T05:37:09.250Z,89.23
2022-09-14T05:42:10.528Z,89.42
2022-09-14T05:47:11.858Z,92.11
2022-09-14T05:52:13.105Z,97.25
2022-09-14T05:57:14.389Z,97.82
2022-09-14T06:02:18.163Z,94.81
2022-09-14T06:07:19.949Z,92.53
2022-09-14T06:12:21.556Z,91.59
2022-09-14T06:17:23.040Z,90.66
2022-09-14T06:22:24.398Z,91.30
2022-09-14T06:27:25.679Z,91.55
2022-09-14T06:32:27.446Z,92.76
2022-09-14T06:37:28.747Z,92.34
2022-09-14T06:42:30.765Z,90.91
2022-09-14T06:47:32.025Z,90.16
2022-09-14T06:52:33.936Z,90.36
2022-09-14T06:57:42.075Z,89.85
2022-09-14T07:02:51.371Z,89.02
2022-09-14T07:07:56.412Z,91.36
2022-09-14T07:12:57.692Z,91.30
2022-09-14T07:18:01.989Z,91.42
2022-09-14T07:23:03.222Z,90.52
2022-09-14T07:28:04.440Z,89.99
2022-09-14T07:33:05.806Z,91.31
2022-09-14T07:38:07.080Z,91.52
2022-09-14T07:43:08.409Z,89.48
2022-09-14T07:48:09.713Z,91.16
2022-09-14T07:53:10.996Z,94.49
2022-09-14T07:58:12.344Z,92.60
2022-09-14T08:03:13.566Z,90.68
2022-09-14T08:08:14.870Z,89.44
2022-09-14T08:13:16.144Z,91.10
2022-09-14T08:18:17.393Z,89.87
2022-09-14T08:23:18.652Z,90.12
2022-09-14T08:28:19.985Z,93.28
2022-09-14T08:33:21.288Z,93.98
2022-09-14T08:38:22.684Z,92.47
2022-09-14T08:43:24.090Z,90.80
2022-09-14T08:48:25.429Z,89.78
2022-09-14T08:53:26.707Z,90.36
2022-09-14T08:58:27.999Z,91.10
2022-09-14T09:03:29.297Z,89.39
2022-09-14T09:08:30.729Z,87.88
2022-09-14T09:13:34.470Z,85.69
2022-09-14T09:18:35.921Z,86.15
2022-09-14T09:23:37.164Z,87.45
2022-09-14T09:28:38.397Z,85.46
2022-09-14T09:33:39.680Z,85.60
2022-09-14T09:38:41.031Z,86.69
2022-09-14T09:43:49.260Z,86.70
2022-09-14T09:48:50.857Z,87.22
2022-09-14T09:53:52.162Z,85.87
2022-09-14T09:58:53.390Z,85.50
2022-09-14T10:03:54.631Z,86.17
2022-09-14T10:08:57.381Z,84.57
2022-09-14T10:13:58.712Z,83.57
2022-09-14T10:19:01.841Z,86.08
2022-09-14T10:29:45.123Z,86.58
2022-09-14T10:34:46.686Z,85.30
2022-09-14T10:39:47.953Z,84.16
2022-09-14T10:44:49.319Z,86.44
2022-09-14T10:49:50.985Z,86.63
2022-09-14T10:54:54.311Z,82.57
2022-09-14T10:59:55.874Z,83.85
2022-09-14T11:04:57.513Z,85.45
2022-09-14T11:10:01.245Z,83.98
2022-09-14T11:15:02.457Z,82.22
2022-09-14T11:20:03.803Z,80.40
2022-09-14T11:25:05.054Z,76.99
2022-09-14T11:30:06.317Z,77.97
2022-09-14T11:35:08.115Z,75.64
2022-09-14T11:40:10.417Z,74.78
2022-09-14T11:45:11.892Z,74.78
2022-09-14T11:50:13.502Z,70.73
2022-09-14T11:55:15.335Z,73.12
2022-09-14T12:00:16.609Z,68.42
2022-09-14T12:05:17.954Z,67.08
2022-09-14T12:10:19.258Z,67.59
2022-09-14T12:15:21.665Z,68.38
2022-09-14T12:20:22.926Z,69.51
2022-09-14T12:25:24.147Z,71.11
2022-09-14T12:30:25.390Z,72.38
2022-09-14T12:35:26.627Z,71.58
2022-09-14T12:40:28.796Z,72.45
2022-09-14T12:45:30.132Z,70.84
2022-09-14T12:50:31.384Z,67.66
2022-09-14T12:55:32.716Z,70.26
2022-09-14T13:00:37.829Z,67.51
2022-09-14T13:05:40.974Z,67.59
2022-09-14T13:10:42.214Z,70.17
2022-09-14T13:15:43.759Z,68.97
2022-09-14T13:20:45.042Z,69.98
2022-09-14T13:25:46.311Z,70.11
2022-09-14T13:30:47.657Z,71.33
2022-09-14T13:35:48.933Z,69.53
2022-09-14T13:40:50.195Z,69.93
2022-09-14T13:45:51.503Z,70.01
2022-09-14T13:50:52.826Z,69.63
2022-09-14T13:55:54.086Z,66.24
2022-09-14T14:00:55.477Z,65.20
2022-09-14T14:05:56.792Z,66.40
2022-09-14T14:10:58.015Z,66.22
2022-09-14T14:15:59.248Z,64.84
2022-09-14T14:21:00.475Z,65.65
2022-09-14T14:26:04.896Z,64.02
2022-09-14T14:31:09.106Z,66.57
2022-09-14T14:36:10.813Z,66.98
2022-09-14T14:41:12.079Z,70.37
2022-09-14T14:46:13.366Z,73.01
2022-09-14T14:51:15.162Z,73.35
2022-09-14T14:56:16.398Z,77.92
2022-09-14T15:01:17.811Z,76.57
2022-09-14T15:06:19.128Z,77.95
2022-09-14T15:11:20.489Z,74.72
2022-09-14T15:16:21.762Z,74.16
2022-09-14T15:21:23.555Z,73.49
2022-09-14T15:26:24.798Z,71.70
2022-09-14T15:31:26.225Z,74.01
2022-09-14T15:36:27.563Z,73.83
2022-09-14T15:41:28.896Z,76.98
2022-09-14T15:46:30.364Z,76.42
2022-09-14T15:51:33.910Z,77.05
2022-09-14T15:56:35.178Z,79.64
2022-09-14T16:01:36.417Z,78.61
2022-09-14T16:06:38.024Z,83.96
2022-09-14T16:11:39.290Z,86.84
2022-09-14T16:16:40.745Z,92.76
2022-09-14T16:21:42.154Z,99.00
2022-09-14T16:26:43.553Z,99.93
2022-09-14T16:31:44.811Z,99.79
2022-09-14T16:36:46.196Z,97.57
2022-09-14T16:41:47.589Z,93.40
2022-09-14T16:46:49.628Z,93.88
2022-09-14T16:51:50.866Z,94.08
2022-09-14T16:56:52.202Z,94.89
2022-09-14T17:01:55.042Z,95.43
2022-09-14T17:06:56.859Z,92.79
2022-09-14T17:11:58.123Z,90.01
2022-09-14T17:16:59.659Z,88.73
2022-09-14T17:22:03.809Z,87.15
2022-09-14T17:27:05.154Z,86.90
2022-09-14T17:32:08.474Z,86.82
2022-09-14T17:37:12.603Z,87.38
2022-09-14T17:42:13.843Z,90.13
2022-09-14T17:47:15.170Z,92.06
2022-09-14T17:52:29.030Z,90.35
2022-09-14T17:57:30.282Z,88.72
2022-09-14T18:02:31.607Z,88.08
2022-09-14T18:07:32.843Z,86.91
2022-09-14T18:12:36.335Z,85.29
2022-09-14T18:17:37.571Z,85.45
2022-09-14T18:22:38.841Z,86.61
2022-09-14T18:27:40.091Z,86.02
2022-09-14T18:32:41.352Z,87.68
2022-09-14T18:37:42.631Z,87.28
2022-09-14T18:42:43.889Z,86.94
2022-09-14T18:47:45.216Z,85.22
2022-09-14T18:52:46.621Z,85.30
2022-09-14T18:57:48.084Z,85.79
2022-09-14T19:02:49.320Z,86.16
2022-09-14T19:07:50.581Z,87.41
2022-09-14T19:12:51.828Z,86.35
2022-09-14T19:17:53.090Z,87.51
2022-09-14T19:22:56.184Z,86.84
2022-09-14T19:27:57.410Z,88.34
2022-09-14T19:32:59.542Z,88.96
2022-09-14T19:38:00.801Z,89.11
2022-09-14T19:43:02.132Z,89.19
2022-09-14T19:48:03.516Z,90.11
2022-09-14T19:53:04.824Z,92.15
2022-09-14T19:58:06.071Z,92.74
2022-09-14T20:03:07.867Z,93.10
2022-09-14T20:08:09.196Z,93.20
2022-09-14T20:13:10.426Z,92.11
2022-09-14T20:18:11.712Z,91.94
2022-09-14T20:23:12.947Z,92.46
2022-09-14T20:28:15.774Z,92.41
2022-09-14T20:33:17.009Z,92.55
2022-09-14T20:38:18.254Z,92.54
2022-09-14T20:43:19.527Z,92.97
2022-09-14T20:48:20.778Z,92.06
2022-09-14T20:53:22.019Z,91.55
2022-09-14T20:58:23.244Z,91.47
2022-09-14T21:03:24.495Z,91.83
2022-09-14T21:08:25.766Z,92.36
2022-09-14T21:13:30.563Z,92.65
2022-09-14T21:18:31.930Z,91.78
2022-09-14T21:23:33.164Z,92.02
2022-09-14T21:28:34.507Z,91.90
2022-09-14T21:33:35.823Z,91.81
2022-09-14T21:38:37.061Z,90.96
2022-09-14T21:43:38.441Z,90.18
2022-09-14T21:48:39.768Z,90.14
2022-09-14T21:53:44.048Z,90.40
2022-09-14T21:58:45.309Z,91.01
2022-09-14T22:03:46.797Z,90.33
2022-09-14T22:08:49.119Z,91.31
2022-09-14T22:13:50.338Z,91.76
2022-09-14T22:18:51.758Z,89.97
2022-09-14T22:23:53.156Z,88.74
2022-09-14T22:28:54.401Z,88.43
2022-09-14T22:33:55.627Z,89.83
2022-09-14T22:38:56.912Z,88.94
2022-09-14T22:43:58.213Z,88.75
2022-09-14T22:48:59.490Z,89.90
2022-09-14T22:54:02.164Z,89.72
2022-09-14T22:59:03.508Z,89.42
2022-09-14T23:04:04.897Z,89.34
2022-09-14T23:09:06.235Z,91.36
2022-09-14T23:14:07.488Z,90.32
2022-09-14T23:19:09.276Z,90.45
2022-09-14T23:24:10.507Z,90.01
2022-09-14T23:29:11.794Z,90.02
2022-09-14T23:34:13.083Z,90.92
2022-09-14T23:39:14.487Z,90.37
2022-09-14T23:44:15.706Z,88.53
2022-09-14T23:49:17.187Z,88.42
2022-09-14T23:54:18.399Z,89.12
2022-09-14T23:59:19.650Z,88.96
